Time;durP1;ratioP1;P1;durP2;ratioP2;P2;SDS_P1;SDS_P2;PMS_P1;PMS_P2;Temp;Humidity;BMP_temperature;BMP_pressure;BME280_temperature;BME280_humidity;BME280_pressure;Samples;Min_cycle;Max_cycle;Signal;HPM_P1;HPM_P2
2022/02/09 00:08:02;;;;;;;4.22;2.50;;;9.00;99.90;;;9.87;100.00;101632.00;5053486;28;20029;-77
2022/02/09 00:10:40;;;;;;;5.25;2.13;;;9.00;99.90;;;9.82;100.00;101634.97;5053055;28;20112;-77
2022/02/09 00:13:35;;;;;;;8.20;2.70;;;9.00;99.90;;;9.80;100.00;101636.44;5035462;28;20399;-79
2022/02/09 00:16:29;;;;;;;7.25;2.92;;;9.00;99.90;;;9.74;100.00;101621.00;5053246;28;20106;-78
2022/02/09 00:19:00;;;;;;;4.95;2.80;;;9.00;99.90;;;9.85;100.00;101627.91;5052205;28;20036;-79
2022/02/09 00:32:31;;;;;;;6.05;3.15;;;8.90;99.90;;;9.74;100.00;101627.41;5052565;28;20027;-77
2022/02/09 00:35:26;;;;;;;6.13;4.22;;;8.90;99.90;;;9.73;100.00;101622.97;5052382;28;20518;-76
2022/02/09 00:43:17;;;;;;;7.93;3.95;;;8.90;99.90;;;9.78;100.00;101614.47;5052103;28;20036;-79
2022/02/09 01:02:40;;;;;;;4.63;3.03;;;8.90;99.90;;;9.70;100.00;101608.88;5052651;28;20407;-77
2022/02/09 01:38:52;;;;;;;2.92;2.15;;;9.00;99.90;;;9.89;100.00;101593.41;5051277;28;20112;-77
2022/02/09 01:55:27;;;;;;;3.22;1.92;;;8.90;99.90;;;9.78;100.00;101580.97;5057388;28;20124;-77
2022/02/09 01:57:56;;;;;;;4.43;1.80;;;9.00;99.90;;;9.80;100.00;101581.47;5055321;28;20095;-79
2022/02/09 02:00:26;;;;;;;4.53;2.38;;;9.00;99.90;;;9.78;100.00;101582.94;5037458;28;20082;-77
2022/02/09 02:02:58;;;;;;;3.90;1.88;;;9.00;99.90;;;9.75;100.00;101578.84;5039525;28;20033;-79
2022/02/09 02:05:24;;;;;;;3.80;2.00;;;9.00;99.90;;;9.76;100.00;101577.69;5042805;28;20033;-78
2022/02/09 02:07:57;;;;;;;3.35;1.83;;;9.00;99.90;;;9.62;100.00;101573.44;5061299;28;20052;-80
2022/02/09 02:10:50;;;;;;;3.15;1.77;;;8.90;99.90;;;9.59;100.00;101560.97;5058064;28;20029;-78
2022/02/09 02:13:58;;;;;;;5.82;1.50;;;8.90;99.90;;;9.63;100.00;101575.91;5037770;28;20032;-77
2022/02/09 02:18:57;;;;;;;1.95;1.40;;;8.80;99.90;;;9.50;100.00;101560.97;5054284;28;20476;-79
2022/02/09 03:13:09;;;;;;;8.95;5.97;;;8.30;99.90;;;9.06;100.00;101529.81;5053748;28;20450;-76
2022/02/09 03:20:50;;;;;;;7.75;5.25;;;8.40;99.90;;;9.24;100.00;101525.91;5053523;28;20111;-77
2022/02/09 03:42:12;;;;;;;4.60;4.07;;;8.50;99.90;;;9.28;100.00;101535.25;5053265;28;20094;-77
2022/02/09 03:42:36;;;;;;;6.20;3.00;;;8.50;99.90;;;9.39;100.00;101528.19;5053295;28;20509;-78
2022/02/09 03:50:48;;;;;;;4.18;2.70;;;8.60;99.90;;;9.42;100.00;101524.72;5054091;28;20047;-78
2022/02/09 03:54:09;;;;;;;4.93;2.72;;;8.70;99.90;;;9.49;100.00;101523.09;5053383;28;20070;-78
2022/02/09 03:58:48;;;;;;;5.43;2.63;;;8.70;99.90;;;9.50;100.00;101507.19;5052851;28;20101;-77
2022/02/09 04:01:15;;;;;;;3.65;2.35;;;8.70;99.90;;;9.56;100.00;101511.44;5034813;28;20025;-78
2022/02/09 04:03:44;;;;;;;6.15;2.63;;;8.70;99.90;;;9.56;100.00;101508.66;5052206;28;20096;-77
2022/02/09 04:06:11;;;;;;;4.25;2.80;;;8.70;99.90;;;9.54;100.00;101510.94;5052421;28;20558;-77
2022/02/09 04:08:45;;;;;;;3.92;2.58;;;8.70;99.90;;;9.58;100.00;101505.50;5052153;28;20083;-77
2022/02/09 04:11:19;;;;;;;3.80;2.85;;;8.70;99.90;;;9.54;100.00;101499.78;5034218;28;20040;-77
2022/02/09 04:44:00;;;;;;;6.32;3.97;;;8.80;99.90;;;9.56;100.00;101483.56;5052064;28;20055;-77
2022/02/09 04:52:14;;;;;;;7.38;4.15;;;8.70;99.90;;;9.51;100.00;101484.53;5052410;28;20440;-76
2022/02/09 04:57:18;;;;;;;6.57;4.30;;;8.70;99.90;;;9.37;100.00;101474.72;5052055;28;20037;-78
2022/02/09 05:00:32;;;;;;;7.55;4.90;;;8.70;99.90;;;9.39;100.00;101484.38;5033888;28;20040;-78
2022/02/09 05:03:04;;;;;;;7.28;4.93;;;8.60;99.90;;;9.26;100.00;101490.13;5043531;28;20171;-78
2022/02/09 05:27:46;;;;;;;7.25;5.68;;;8.30;99.90;;;9.06;100.00;101471.28;5055687;28;20111;-77
2022/02/09 05:30:15;;;;;;;7.65;5.43;;;8.30;99.90;;;8.98;100.00;101478.50;5037641;28;20420;-77
2022/02/09 05:32:43;;;;;;;8.63;5.53;;;8.30;99.90;;;8.91;100.00;101476.22;5055317;28;20040;-78
2022/02/09 05:35:09;;;;;;;7.45;5.53;;;8.20;99.90;;;8.91;100.00;101467.84;5055688;28;20173;-78
2022/02/09 05:37:38;;;;;;;8.15;5.40;;;8.20;99.90;;;8.96;100.00;101469.63;5055319;28;20056;-77
2022/02/09 05:40:05;;;;;;;6.75;4.95;;;8.20;99.90;;;9.00;100.00;101474.25;5054965;28;20052;-77
2022/02/09 05:42:32;;;;;;;6.70;4.75;;;8.20;99.90;;;9.00;100.00;101467.84;5037278;28;20032;-77
2022/02/09 05:45:05;;;;;;;7.97;5.35;;;8.20;99.90;;;8.96;100.00;101467.69;5036988;28;20029;-79
2022/02/09 05:50:21;;;;;;;5.75;4.07;;;8.20;99.90;;;9.00;100.00;101460.31;5055142;28;20448;-77
2022/02/09 05:58:32;;;;;;;6.15;3.97;;;8.20;99.90;;;8.95;100.00;101473.59;5054929;28;20028;-77
2022/02/09 06:00:53;;;;;;;5.22;3.97;;;8.20;99.90;;;9.03;100.00;101478.34;5054255;28;20033;-77
2022/02/09 06:03:18;;;;;;;5.68;3.05;;;8.30;99.90;;;9.07;100.00;101479.31;5054871;28;20037;-77
2022/02/09 06:05:48;;;;;;;5.68;3.58;;;8.30;99.90;;;9.09;100.00;101477.03;5036626;28;20040;-77
2022/02/09 06:08:13;;;;;;;5.25;3.47;;;8.30;99.90;;;9.11;100.00;101480.31;5054584;28;20068;-78
2022/02/09 06:10:55;;;;;;;4.35;3.45;;;8.40;99.90;;;9.18;100.00;101485.41;5036701;28;20057;-77
2022/02/09 06:13:30;;;;;;;6.80;4.00;;;8.30;99.90;;;9.24;100.00;101496.06;5036979;28;20037;-76
2022/02/09 06:16:09;;;;;;;6.50;3.40;;;8.40;99.90;;;9.20;100.00;101485.88;5055127;28;20380;-77
2022/02/09 06:21:21;;;;;;;5.32;3.75;;;8.40;99.90;;;9.15;100.00;101484.06;5054688;28;20059;-76
2022/02/09 06:23:48;;;;;;;6.65;4.28;;;8.40;99.90;;;9.21;100.00;101485.56;5054572;28;20091;-76
2022/02/09 06:26:15;;;;;;;6.63;3.95;;;8.50;99.90;;;9.25;100.00;101488.50;5036604;28;20065;-77
2022/02/09 06:28:47;;;;;;;8.50;4.53;;;8.50;99.90;;;9.19;100.00;101473.09;5036587;28;20035;-76
2022/02/09 06:31:14;;;;;;;9.00;4.25;;;8.50;99.90;;;9.25;100.00;101478.16;5054427;28;20499;-77
2022/02/09 06:33:40;;;;;;;5.97;3.67;;;8.50;99.90;;;9.26;100.00;101463.09;5054135;28;20108;-77
2022/02/09 06:36:09;;;;;;;5.88;3.30;;;8.50;99.90;;;9.26;100.00;101465.03;5036427;28;20131;-76
2022/02/09 06:38:40;;;;;;;4.63;3.42;;;8.40;99.90;;;9.27;100.00;101470.31;5036026;28;20115;-77
2022/02/09 06:41:09;;;;;;;5.55;3.30;;;8.40;99.90;;;9.28;100.00;101463.56;5054040;28;20056;-78
2022/02/09 06:43:35;;;;;;;4.72;2.95;;;8.50;99.90;;;9.30;100.00;101477.19;5036555;28;20488;-77
2022/02/09 06:46:02;;;;;;;4.93;2.80;;;8.50;99.90;;;9.28;100.00;101473.91;5036174;28;20036;-78
2022/02/09 06:48:35;;;;;;;4.22;2.95;;;8.50;99.90;;;9.26;100.00;101471.44;5053912;28;20112;-76
2022/02/09 06:51:11;;;;;;;5.20;3.40;;;8.50;99.90;;;9.34;100.00;101480.97;5054278;28;20072;-76
2022/02/09 06:53:59;;;;;;;4.97;2.97;;;8.50;99.90;;;9.38;100.00;101476.34;5053634;28;20492;-76
2022/02/09 06:59:20;;;;;;;6.55;3.80;;;8.50;99.90;;;9.26;100.00;101470.63;5053872;28;20104;-76
2022/02/09 07:01:46;;;;;;;4.57;3.17;;;8.50;99.90;;;9.26;100.00;101485.38;5035636;28;20112;-76
2022/02/09 07:04:12;;;;;;;4.50;3.53;;;8.50;99.90;;;9.27;100.00;101472.28;5035731;28;20559;-76
2022/02/09 07:06:38;;;;;;;5.68;3.78;;;8.40;99.90;;;9.30;100.00;101463.25;5053772;28;20029;-77
2022/02/09 07:09:08;;;;;;;7.43;3.58;;;8.50;99.90;;;9.34;100.00;101464.22;5036126;28;20036;-77
2022/02/09 07:11:34;;;;;;;5.88;3.70;;;8.50;99.90;;;9.28;100.00;101465.56;5035274;28;20455;-75
2022/02/09 07:14:00;;;;;;;7.57;4.95;;;8.50;99.90;;;9.31;100.00;101464.91;5053714;28;20024;-75
2022/02/09 07:16:27;;;;;;;8.50;4.60;;;8.50;99.90;;;9.43;100.00;101481.75;5053281;28;20044;-77
2022/02/09 07:18:53;;;;;;;9.80;5.47;;;8.60;99.90;;;9.42;100.00;101475.38;5035261;28;20105;-76
2022/02/09 07:21:30;;;;;;;11.68;6.90;;;8.60;99.90;;;9.36;100.00;101476.69;5035927;28;20029;-76
2022/02/09 07:23:58;;;;;;;10.27;6.93;;;8.60;99.90;;;9.41;100.00;101470.09;5053763;28;20488;-75
2022/02/09 07:26:30;;;;;;;13.00;8.20;;;8.60;99.90;;;9.37;100.00;101466.34;5053717;28;20029;-77
2022/02/09 07:28:59;;;;;;;10.27;7.20;;;8.60;99.90;;;9.37;100.00;101460.78;5053202;28;20028;-76
2022/02/09 07:31:25;;;;;;;14.77;8.00;;;8.60;99.90;;;9.37;100.00;101463.56;5053116;28;20068;-76
2022/02/09 07:33:54;;;;;;;11.85;8.38;;;8.60;99.90;;;9.34;100.00;101461.44;5053688;28;20029;-77
2022/02/09 07:36:20;;;;;;;12.20;8.35;;;8.60;99.90;;;9.32;100.00;101461.75;5054448;28;20392;-77
2022/02/09 07:38:46;;;;;;;13.43;8.00;;;8.60;99.90;;;9.31;100.00;101464.91;5055164;28;20350;-76
2022/02/09 07:41:13;;;;;;;13.07;7.97;;;8.60;99.90;;;9.29;100.00;101468.00;5036920;28;20043;-76
2022/02/09 07:43:52;;;;;;;15.88;7.10;;;8.60;99.90;;;9.40;100.00;101479.63;5035809;28;20082;-77
2022/02/09 07:49:22;;;;;;;8.57;6.82;;;8.60;99.90;;;9.51;100.00;101476.16;5053444;28;20057;-77
2022/02/09 07:52:06;;;;;;;12.13;7.38;;;8.60;99.90;;;9.54;100.00;101475.50;5053606;28;20039;-76
2022/02/09 07:54:33;;;;;;;10.40;7.00;;;8.70;99.90;;;9.51;100.00;101476.16;5053992;28;20073;-77
2022/02/09 07:56:59;;;;;;;10.30;6.90;;;8.70;99.90;;;9.57;100.00;101467.63;5036244;28;20031;-76
2022/02/09 07:59:25;;;;;;;11.00;7.28;;;8.70;99.90;;;9.51;100.00;101465.00;5054007;28;20052;-76
2022/02/09 08:01:51;;;;;;;12.95;6.85;;;8.70;99.90;;;9.61;100.00;101461.03;5035748;28;20017;-77
2022/02/09 08:04:20;;;;;;;12.02;6.80;;;8.70;99.90;;;9.66;100.00;101466.47;5054275;28;20101;-75
2022/02/09 08:06:53;;;;;;;10.90;6.85;;;8.80;99.90;;;9.66;100.00;101462.84;5035667;28;20052;-77
2022/02/09 08:12:01;;;;;;;10.15;5.78;;;8.90;99.90;;;9.70;100.00;101466.59;5053871;28;20125;-76
2022/02/09 08:26:14;;;;;;;7.80;5.85;;;9.10;99.90;;;9.91;100.00;101453.56;5053716;28;20083;-77
2022/02/09 08:34:04;;;;;;;11.77;7.20;;;9.00;99.90;;;9.79;100.00;101454.25;5024502;28;20051;-77
2022/02/09 08:36:29;;;;;;;8.70;5.93;;;9.00;99.90;;;9.76;100.00;101462.50;5035122;28;20047;-75
2022/02/09 08:38:56;;;;;;;9.98;6.13;;;9.00;99.90;;;9.77;100.00;101461.31;5035170;28;20455;-75
2022/02/09 08:41:22;;;;;;;9.85;6.57;;;8.90;99.90;;;9.76;100.00;101456.91;5052916;28;20097;-77
2022/02/09 08:43:48;;;;;;;9.55;6.35;;;8.90;99.90;;;9.73;100.00;101460.38;5052803;28;20115;-75
2022/02/09 08:46:15;;;;;;;9.95;5.53;;;9.00;99.90;;;9.78;100.00;101466.59;5040233;28;20041;-75
2022/02/09 08:48:42;;;;;;;11.35;6.78;;;8.90;99.90;;;9.84;100.00;101458.84;5064779;28;20029;-75
2022/02/09 08:51:08;;;;;;;8.95;6.47;;;9.00;99.90;;;9.91;100.00;101453.56;5059083;28;20497;-76
2022/02/09 08:53:35;;;;;;;8.98;6.28;;;9.10;99.90;;;9.94;100.00;101452.91;5057075;28;20025;-76
2022/02/09 08:56:07;;;;;;;8.63;6.43;;;9.10;99.90;;;9.90;100.00;101449.13;5057650;28;20021;-75
2022/02/09 08:58:35;;;;;;;8.05;5.57;;;9.10;99.90;;;9.94;100.00;101456.53;5056843;28;20017;-76
2022/02/09 09:01:09;;;;;;;10.32;6.45;;;9.10;99.90;;;9.96;100.00;101454.19;5056812;28;20112;-75
2022/02/09 09:03:58;;;;;;;10.32;5.97;;;9.10;99.90;;;10.02;100.00;101452.03;5035742;28;20025;-75
2022/02/09 09:06:28;;;;;;;8.00;5.75;;;9.20;99.90;;;10.01;100.00;101445.66;5052630;28;20033;-75
2022/02/09 09:12:01;;;;;;;9.88;5.95;;;9.20;99.90;;;10.07;100.00;101449.91;5052416;28;20095;-76
2022/02/09 09:31:15;;;;;;;9.07;5.28;;;9.60;99.90;;;10.43;100.00;101441.03;5053960;28;20088;-77
2022/02/09 10:31:53;;;;;;;2.72;1.80;;;10.40;99.90;;;11.46;93.98;101458.94;5056183;28;20554;-76
2022/02/09 10:34:19;;;;;;;4.90;2.17;;;10.50;99.90;;;11.55;92.58;101454.88;5055590;28;20035;-75
2022/02/09 10:37:05;;;;;;;3.22;2.00;;;10.70;99.90;;;11.60;92.12;101448.22;5037822;28;20029;-76
2022/02/09 10:42:48;;;;;;;5.03;1.98;;;10.80;99.90;;;11.80;91.31;101452.97;5041988;28;20191;-75
2022/02/09 10:45:34;;;;;;;5.00;1.85;;;10.90;99.90;;;11.84;90.73;101450.31;5055632;28;20025;-77
2022/02/09 10:48:26;;;;;;;2.55;1.50;;;10.90;99.90;;;11.84;90.54;101447.50;5055438;28;20025;-76
2022/02/09 10:54:23;;;;;;;2.25;1.60;;;11.10;99.90;;;11.99;89.02;101450.44;5055812;28;20134;-76
2022/02/09 10:57:21;;;;;;;4.00;2.08;;;11.10;99.90;;;12.07;87.32;101429.91;5055266;28;20022;-74
2022/02/09 10:59:49;;;;;;;3.15;1.88;;;11.20;99.90;;;11.92;88.76;101446.56;5010801;28;20037;-76
2022/02/09 11:02:17;;;;;;;2.65;1.80;;;11.20;99.90;;;11.95;88.90;101438.28;5037548;28;20437;-77
2022/02/09 11:04:47;;;;;;;3.00;1.98;;;11.10;99.90;;;12.10;89.27;101440.41;5037339;28;20051;-76
2022/02/09 11:07:18;;;;;;;3.35;1.85;;;11.20;99.90;;;11.91;87.99;101445.75;5055708;28;20027;-76
2022/02/09 11:09:44;;;;;;;3.03;2.03;;;11.20;99.90;;;11.75;89.06;101447.59;5055081;28;20032;-75
2022/02/09 11:12:13;;;;;;;3.58;1.88;;;11.10;99.90;;;11.99;88.84;101439.25;5055417;28;20103;-75
2022/02/09 11:14:42;;;;;;;3.05;2.08;;;11.10;99.90;;;12.11;87.71;101444.03;5054858;28;20163;-78
2022/02/09 11:17:08;;;;;;;3.42;1.85;;;11.20;99.90;;;12.19;86.87;101445.91;5054750;28;20021;-78
2022/02/09 11:19:40;;;;;;;3.80;1.67;;;11.30;99.90;;;12.26;87.61;101448.94;5055170;28;20399;-76
2022/02/09 11:22:23;;;;;;;3.70;2.10;;;11.40;99.90;;;12.24;87.23;101448.47;5054987;28;20086;-77
2022/02/09 11:25:31;;;;;;;3.25;2.03;;;11.40;99.90;;;12.31;87.66;101423.50;5054729;28;20029;-76
2022/02/09 11:28:32;;;;;;;2.63;1.85;;;11.40;99.90;;;12.26;87.59;101445.31;5036462;28;20029;-76
2022/02/09 11:31:23;;;;;;;5.45;2.35;;;11.40;99.90;;;12.03;87.44;101433.75;5054245;28;20033;-76
2022/02/09 11:33:55;;;;;;;3.65;2.22;;;11.30;99.90;;;11.73;88.71;101438.72;5054043;28;20059;-76
2022/02/09 11:38:52;;;;;;;2.85;2.05;;;11.00;99.90;;;11.52;91.06;101432.38;5054889;28;20060;-76
2022/02/09 11:41:24;;;;;;;3.13;2.10;;;10.80;99.90;;;11.65;91.08;101445.22;5054457;28;20025;-76
2022/02/09 11:44:03;;;;;;;4.55;2.00;;;10.80;99.90;;;11.50;91.25;101441.09;5054542;28;20025;-76
2022/02/09 11:49:39;;;;;;;6.15;2.50;;;10.80;99.90;;;11.56;90.96;101436.91;5053784;28;20039;-77
2022/02/09 11:52:28;;;;;;;4.57;2.78;;;10.80;99.90;;;11.66;91.67;101438.44;5054164;28;20420;-76
2022/02/09 12:01:23;;;;;;;5.78;3.33;;;10.80;99.90;;;11.28;93.54;101433.09;5054351;28;20120;-78
2022/02/09 12:12:28;;;;;;;7.90;3.53;;;10.00;99.90;;;10.75;97.60;101419.13;5053253;28;20040;-76
2022/02/09 12:15:12;;;;;;;7.03;3.58;;;9.90;99.90;;;10.58;99.43;101423.66;5053091;28;20555;-75
2022/02/09 12:20:35;;;;;;;5.10;3.53;;;9.70;99.90;;;10.46;100.00;101422.78;5054280;28;20060;-76
2022/02/09 12:23:24;;;;;;;5.68;3.35;;;9.60;99.90;;;10.42;100.00;101428.22;5036939;28;20519;-76
2022/02/09 12:25:52;;;;;;;5.65;3.17;;;9.60;99.90;;;10.50;100.00;101420.91;5038541;28;20039;-76
2022/02/09 12:28:30;;;;;;;6.30;3.05;;;9.60;99.90;;;10.58;100.00;101420.06;5054186;28;20109;-76
2022/02/09 12:31:15;;;;;;;4.93;3.00;;;9.70;99.90;;;10.68;100.00;101422.44;5052874;28;20029;-76
2022/02/09 12:33:48;;;;;;;5.63;3.40;;;9.70;99.90;;;10.64;100.00;101417.88;5053300;28;20075;-76
2022/02/09 12:36:21;;;;;;;5.63;3.30;;;9.70;99.90;;;10.68;100.00;101407.66;5052748;28;20057;-76
2022/02/09 12:38:57;;;;;;;11.98;5.53;;;9.80;99.90;;;10.69;100.00;101410.09;5052835;28;20025;-77
2022/02/09 12:41:24;;;;;;;4.05;3.20;;;9.80;99.90;;;10.77;100.00;101402.81;5052417;28;20033;-77
2022/02/09 12:44:05;;;;;;;9.05;3.40;;;9.90;99.90;;;10.86;99.96;101409.97;5034409;28;20033;-76
2022/02/09 12:46:39;;;;;;;6.55;3.22;;;9.90;99.90;;;10.79;99.82;101409.69;5053270;28;20033;-76
2022/02/09 12:49:12;;;;;;;7.82;4.18;;;9.90;99.90;;;10.83;99.76;101401.44;5053440;28;20485;-75
2022/02/09 12:51:46;;;;;;;6.55;3.97;;;9.90;99.90;;;10.68;100.00;101397.31;5036108;28;20032;-76
2022/02/09 12:54:16;;;;;;;9.00;4.03;;;9.80;99.90;;;10.63;100.00;101400.28;5053534;28;20162;-76
2022/02/09 12:56:49;;;;;;;6.30;4.28;;;9.70;99.90;;;10.55;100.00;101395.59;5054608;28;20064;-77
2022/02/09 12:59:21;;;;;;;5.32;3.45;;;9.70;99.90;;;10.52;100.00;101399.91;5057442;28;20515;-76
2022/02/09 13:02:13;;;;;;;7.82;4.38;;;9.60;99.90;;;10.43;100.00;101398.31;5035182;28;20066;-76
2022/02/09 13:04:41;;;;;;;6.20;3.50;;;9.60;99.90;;;10.41;100.00;101390.25;5052480;28;20084;-76
2022/02/09 13:07:15;;;;;;;6.68;3.55;;;9.50;99.90;;;10.46;100.00;101390.09;5064901;28;20029;-78
2022/02/09 13:09:51;;;;;;;6.03;4.03;;;9.50;99.90;;;10.49;100.00;101386.59;5045311;28;20415;-76
2022/02/09 13:12:29;;;;;;;6.53;3.55;;;9.50;99.90;;;10.51;100.00;101381.50;5036917;28;20029;-75
2022/02/09 13:15:12;;;;;;;5.90;3.42;;;9.50;99.90;;;10.41;100.00;101386.66;5053876;28;20447;-75
2022/02/09 13:24:35;;;;;;;8.05;2.97;;;9.70;99.90;;;10.74;99.24;101379.16;5053209;28;20033;-77
2022/02/09 13:51:47;;;;;;;4.78;3.00;;;9.80;99.90;;;10.79;98.70;101378.16;5050541;28;20036;-77
2022/02/09 14:12:30;;;;;;;5.57;3.72;;;10.30;99.90;;;11.20;95.57;101364.09;5055208;28;20036;-75
2022/02/09 14:56:01;;;;;;;6.30;3.00;;;9.90;99.90;;;10.69;96.92;101359.00;5054735;28;20032;-76
2022/02/09 14:58:30;;;;;;;5.35;3.03;;;9.90;99.90;;;10.85;95.91;101366.41;5063812;28;20030;-75
2022/02/09 15:07:15;;;;;;;4.90;2.65;;;9.90;99.90;;;10.88;95.60;101362.94;5074391;28;19915;-76
2022/02/09 15:11:49;;;;;;;8.63;3.08;;;10.00;99.90;;;10.87;95.60;101360.47;5074111;28;20039;-75
2022/02/09 15:14:23;;;;;;;4.75;2.60;;;9.90;99.90;;;10.86;95.52;101365.25;5074147;28;20024;-77
2022/02/09 15:17:00;;;;;;;7.03;2.83;;;9.90;99.90;;;10.83;95.64;101373.50;5034181;28;20095;-76
2022/02/09 15:19:38;;;;;;;4.90;2.75;;;9.90;99.90;;;10.87;95.26;101366.91;5033103;28;20033;-76
2022/02/09 15:22:12;;;;;;;5.28;2.83;;;9.90;99.90;;;10.72;95.37;101361.94;5033713;28;20029;-76
2022/02/09 15:24:43;;;;;;;4.30;2.60;;;9.80;99.90;;;10.80;95.74;101363.00;5033379;28;20025;-76
2022/02/09 15:27:18;;;;;;;6.63;2.83;;;9.80;99.90;;;10.78;95.60;101366.16;5033731;28;20029;-77
2022/02/09 15:29:46;;;;;;;3.65;2.20;;;9.80;99.90;;;10.70;95.02;101357.84;5033164;28;20029;-75
2022/02/09 15:32:38;;;;;;;6.88;2.33;;;9.80;99.90;;;10.79;95.75;101361.41;5033284;28;20040;-77
2022/02/09 15:38:12;;;;;;;6.78;2.50;;;9.70;99.90;;;10.70;95.44;101343.88;4988864;28;20079;-75
2022/02/09 16:11:01;;;;;;;7.47;2.15;;;9.60;99.90;;;10.59;94.72;101346.28;5073080;28;20441;-77
2022/02/09 16:16:56;;;;;;;2.35;1.73;;;9.60;99.90;;;10.62;94.87;101348.38;5027826;28;20039;-76
2022/02/09 16:22:54;;;;;;;5.68;2.50;;;9.60;99.90;;;10.56;94.12;101346.97;5065217;28;20021;-78
2022/02/09 16:46:24;;;;;;;5.00;2.05;;;9.50;99.90;;;10.47;94.27;101338.63;5051187;28;20109;-79
2022/02/09 16:51:33;;;;;;;4.45;2.05;;;9.40;99.90;;;10.40;93.74;101338.34;5074375;28;20032;-76
2022/02/09 16:57:05;;;;;;;2.63;1.60;;;9.40;99.90;;;10.39;92.59;101338.72;5078240;28;20242;-76
2022/02/09 17:19:03;;;;;;;3.35;1.65;;;9.50;99.90;;;10.40;91.43;101343.94;5079380;28;20078;-76
2022/02/09 17:21:38;;;;;;;2.70;1.75;;;9.50;99.90;;;10.45;90.83;101346.53;5078531;28;20085;-77
2022/02/09 17:24:13;;;;;;;3.17;1.73;;;9.60;99.90;;;10.42;92.10;101338.03;5080267;28;20035;-76
2022/02/09 17:26:43;;;;;;;8.73;2.05;;;9.60;99.90;;;10.43;91.95;101343.28;5061766;28;20036;-76
2022/02/09 17:29:21;;;;;;;5.75;1.70;;;9.50;99.90;;;10.33;92.57;101346.47;5079281;28;20047;-75
2022/02/09 17:53:32;;;;;;;4.60;2.08;;;9.50;99.90;;;10.37;94.11;101335.44;5058325;28;20036;-75
2022/02/09 17:56:05;;;;;;;3.40;1.75;;;9.40;99.90;;;10.24;94.60;101330.94;5055959;28;20029;-74
2022/02/09 17:58:52;;;;;;;3.80;2.20;;;9.40;99.90;;;10.31;94.26;101334.81;5039019;28;20060;-75
2022/02/09 18:01:19;;;;;;;;;;;9.40;99.90;;;10.29;94.61;101337.13;5040939;28;20033;-75
2022/02/09 18:03:47;;;;;;;3.80;1.88;;;9.40;99.90;;;10.34;94.41;101333.34;5057472;28;20330;-77
2022/02/09 18:06:28;;;;;;;4.10;1.92;;;9.40;99.90;;;10.28;94.94;101327.13;5057486;28;20094;-77
2022/02/09 18:09:16;;;;;;;5.60;2.28;;;9.40;99.90;;;10.28;94.96;101340.25;5057074;28;20032;-78
2022/02/09 18:12:05;;;;;;;5.45;2.17;;;9.40;99.90;;;10.26;95.32;101328.63;5038966;28;20407;-74
2022/02/09 18:15:09;;;;;;;8.07;2.50;;;9.30;99.90;;;10.26;95.44;101325.81;5039292;28;20032;-76
2022/02/09 18:31:17;;;;;;;6.95;3.65;;;9.30;99.90;;;10.17;96.73;101336.25;5062333;28;20092;-77
2022/02/09 18:44:28;;;;;;;6.47;2.78;;;9.40;99.90;;;10.25;96.09;101326.97;5058205;28;20279;-77
2022/02/09 18:58:33;;;;;;;9.77;4.30;;;9.30;99.90;;;10.25;95.68;101313.84;5077186;28;20510;-76
2022/02/09 19:03:53;;;;;;;8.05;3.60;;;9.30;99.90;;;10.23;95.52;101310.56;5077247;28;20044;-77
2022/02/09 19:14:28;;;;;;;9.52;3.83;;;9.30;99.90;;;10.21;94.97;101298.91;5081132;28;20032;-77
2022/02/09 19:42:40;;;;;;;7.70;4.45;;;9.30;99.90;;;10.23;93.04;101287.41;5076919;28;20116;-76
2022/02/09 19:47:45;;;;;;;7.80;4.20;;;9.20;99.90;;;10.19;92.83;101269.72;5076129;28;20110;-76
2022/02/09 19:50:43;;;;;;;7.18;4.72;;;9.20;99.90;;;10.13;92.48;101271.88;5045474;28;20092;-77
2022/02/09 19:55:57;;;;;;;9.63;5.17;;;9.00;99.90;;;9.82;93.62;101269.47;5062038;28;20033;-79
2022/02/09 19:58:34;;;;;;;8.38;5.25;;;8.90;99.90;;;9.75;94.53;101273.94;5055537;28;20074;-77
2022/02/09 20:01:00;;;;;;;7.57;4.40;;;8.80;99.90;;;9.66;94.75;101268.41;5036817;28;20090;-78
2022/02/09 20:03:26;;;;;;;6.93;5.03;;;8.70;99.90;;;9.62;95.02;101270.25;5038011;28;20025;-79
2022/02/09 20:05:52;;;;;;;12.15;5.95;;;8.70;99.90;;;9.62;95.60;101267.44;5055803;28;20028;-77
2022/02/09 20:08:17;;;;;;;6.40;4.68;;;8.70;99.90;;;9.61;95.46;101263.03;5057506;28;20454;-79
2022/02/09 20:10:45;;;;;;;6.78;4.85;;;8.60;99.90;;;9.59;95.17;101268.13;5057446;28;20051;-76
2022/02/09 20:13:11;;;;;;;7.28;4.53;;;8.70;99.90;;;9.60;95.55;101263.38;5057287;28;20357;-77
2022/02/09 20:15:37;;;;;;;6.75;3.95;;;8.60;99.90;;;9.60;95.29;101255.00;5056810;28;20021;-80
2022/02/09 20:18:03;;;;;;;6.82;4.25;;;8.60;99.90;;;9.66;95.00;101253.66;5037461;28;20036;-77
2022/02/09 20:20:34;;;;;;;10.23;4.32;;;8.60;99.90;;;9.70;95.10;101255.41;5037565;28;20119;-76
2022/02/09 20:23:00;;;;;;;8.20;5.18;;;8.70;99.90;;;9.69;94.52;101261.34;5041009;28;20122;-76
2022/02/09 20:25:28;;;;;;;9.48;6.50;;;8.80;99.90;;;9.73;94.36;101263.09;5038061;28;20486;-77
2022/02/09 20:27:56;;;;;;;12.05;6.78;;;8.90;99.90;;;9.80;93.68;101255.03;5053972;28;20448;-75
2022/02/09 20:30:28;;;;;;;14.13;7.43;;;8.90;99.90;;;9.80;94.15;101260.59;5055090;28;20107;-76
2022/02/09 20:32:59;;;;;;;11.95;6.72;;;8.90;99.90;;;9.77;94.52;101257.66;5055182;28;20035;-76
2022/02/09 20:35:25;;;;;;;14.10;6.72;;;8.90;99.90;;;9.79;94.40;101247.00;5055687;28;20091;-76
2022/02/09 20:37:54;;;;;;;13.75;7.88;;;8.90;99.90;;;9.75;94.18;101248.84;5059105;28;20389;-77
2022/02/09 20:40:26;;;;;;;12.02;6.97;;;8.90;99.90;;;9.75;94.11;101243.25;5058668;28;20055;-79
2022/02/09 20:42:56;;;;;;;10.80;6.85;;;8.90;99.90;;;9.76;93.99;101236.53;5059691;28;20024;-77
2022/02/09 20:45:33;;;;;;;12.52;6.93;;;8.90;99.90;;;9.77;94.20;101236.19;5067322;28;20033;-80
2022/02/09 20:48:04;;;;;;;10.80;6.97;;;8.80;99.90;;;9.75;94.32;101235.72;5065774;28;20036;-77
2022/02/09 20:50:32;;;;;;;13.23;7.10;;;8.80;99.90;;;9.71;94.45;101242.28;5050095;28;20048;-77
2022/02/09 20:52:58;;;;;;;9.35;6.38;;;8.80;99.90;;;9.69;94.95;101244.59;5061181;28;20480;-77
2022/02/09 20:55:27;;;;;;;10.93;6.57;;;8.70;99.90;;;9.64;95.30;101239.22;5057653;28;20025;-76
2022/02/09 20:57:53;;;;;;;8.63;6.03;;;8.70;99.90;;;9.59;95.14;101242.22;5055432;28;20021;-78
2022/02/09 21:16:34;;;;;;;7.30;4.97;;;8.70;99.90;;;9.56;95.22;101238.13;5055281;28;20360;-76
2022/02/09 21:22:15;;;;;;;10.00;5.65;;;8.60;99.90;;;9.51;96.22;101224.34;5053946;28;20137;-78
2022/02/09 21:25:01;;;;;;;10.10;4.47;;;8.60;99.90;;;9.49;96.42;101219.13;5053858;28;20373;-76
2022/02/09 21:33:13;;;;;;;9.05;4.63;;;8.60;99.90;;;9.44;96.92;101221.28;5055795;28;20219;-77
2022/02/09 21:52:46;;;;;;;8.07;4.90;;;8.50;99.90;;;9.34;98.20;101216.09;5078038;28;20047;-78
2022/02/09 21:54:54;;;;;;;9.38;4.97;;;8.60;99.90;;;9.46;97.36;101205.88;5069746;28;20050;-78
2022/02/09 21:57:34;;;;;;;12.38;5.10;;;8.60;99.90;;;9.41;97.50;101206.03;5074412;28;20027;-77
2022/02/09 22:19:32;;;;;;;11.65;4.82;;;8.50;99.90;;;9.36;98.67;101197.06;5078016;28;20118;-75
2022/02/09 22:57:12;;;;;;;14.77;5.70;;;8.50;99.90;;;9.29;99.60;101144.63;5013697;28;20160;-77
2022/02/09 23:02:37;;;;;;;10.63;5.97;;;8.40;99.90;;;9.23;100.00;101136.81;5053644;28;20056;-75
2022/02/09 23:12:48;;;;;;;13.77;6.68;;;8.40;99.90;;;9.19;100.00;101128.28;5057463;28;20021;-77
2022/02/09 23:15:33;;;;;;;12.93;6.18;;;8.30;99.90;;;9.18;100.00;101120.28;5057824;28;20048;-78
2022/02/09 23:57:07;;;;;;;14.73;6.20;;;8.20;99.90;;;9.10;100.00;101082.94;5034217;28;20168;-76
